createdAt,value
2017-12-12T00:01:57.258Z,3.90
2017-12-12T00:04:25.670Z,3.80
2017-12-12T00:06:53.336Z,3.80
2017-12-12T00:09:21.048Z,3.80
2017-12-12T00:11:49.463Z,3.80
2017-12-12T00:14:17.186Z,3.80
2017-12-12T00:16:45.577Z,3.80
2017-12-12T00:19:13.982Z,3.80
2017-12-12T00:21:41.631Z,3.80
2017-12-12T00:24:09.274Z,3.80
2017-12-12T00:26:37.678Z,3.80
2017-12-12T00:29:05.293Z,3.90
2017-12-12T00:31:33.723Z,3.70
2017-12-12T00:34:01.360Z,3.70
2017-12-12T00:36:28.971Z,3.70
2017-12-12T00:38:56.659Z,3.80
2017-12-12T00:41:25.031Z,3.80
2017-12-12T00:43:53.498Z,3.80
2017-12-12T00:46:21.162Z,3.80
2017-12-12T00:48:48.776Z,3.80
2017-12-12T00:51:16.431Z,3.80
2017-12-12T00:53:44.065Z,3.80
2017-12-12T00:56:11.713Z,3.80
2017-12-12T00:58:39.338Z,3.80
2017-12-12T01:01:07.029Z,3.90
2017-12-12T01:03:35.406Z,3.90
2017-12-12T01:06:03.033Z,3.90
2017-12-12T01:08:30.693Z,3.90
2017-12-12T01:10:58.299Z,3.90
2017-12-12T01:13:26.704Z,3.90
2017-12-12T01:15:54.332Z,3.90
2017-12-12T01:18:22.742Z,3.90
2017-12-12T01:20:50.384Z,3.90
2017-12-12T01:23:18.027Z,3.90
2017-12-12T01:25:46.423Z,3.80
2017-12-12T01:28:14.152Z,3.80
2017-12-12T01:30:41.778Z,3.80
2017-12-12T01:33:09.404Z,3.80
2017-12-12T01:35:37.055Z,3.80
2017-12-12T01:38:04.773Z,3.80
2017-12-12T01:40:32.511Z,3.90
2017-12-12T01:43:00.210Z,3.80
2017-12-12T01:45:27.899Z,3.80
2017-12-12T01:47:56.352Z,3.70
2017-12-12T01:50:24.019Z,3.70
2017-12-12T01:52:52.505Z,3.80
2017-12-12T01:55:20.962Z,3.70
2017-12-12T01:57:48.699Z,3.70
2017-12-12T02:00:16.409Z,3.70
2017-12-12T02:02:44.904Z,3.70
2017-12-12T02:05:12.587Z,3.70
2017-12-12T02:07:40.236Z,3.70
2017-12-12T02:10:07.942Z,3.80
2017-12-12T02:12:35.611Z,3.80
2017-12-12T02:15:03.327Z,3.80
2017-12-12T02:17:31.027Z,3.80
2017-12-12T02:19:58.716Z,3.80
2017-12-12T02:22:27.209Z,3.70
2017-12-12T02:24:54.888Z,3.70
2017-12-12T02:27:22.629Z,3.70
2017-12-12T02:29:51.087Z,3.70
2017-12-12T02:32:19.589Z,3.80
2017-12-12T02:34:47.274Z,3.70
2017-12-12T02:37:15.055Z,3.70
2017-12-12T02:39:42.739Z,3.80
2017-12-12T02:42:10.440Z,3.80
2017-12-12T02:44:38.155Z,3.90
2017-12-12T02:47:05.844Z,3.80
2017-12-12T02:49:34.347Z,3.80
2017-12-12T02:52:02.058Z,3.80
2017-12-12T02:54:29.739Z,3.70
2017-12-12T02:56:58.198Z,3.80
2017-12-12T02:59:25.884Z,3.80
2017-12-12T03:01:54.434Z,3.90
2017-12-12T03:04:22.127Z,3.90
2017-12-12T03:06:50.576Z,3.90
2017-12-12T03:09:18.286Z,3.90
2017-12-12T03:11:45.980Z,3.90
2017-12-12T03:14:13.682Z,4.00
2017-12-12T03:16:42.127Z,4.00
2017-12-12T03:19:09.865Z,4.00
2017-12-12T03:21:37.562Z,4.00
2017-12-12T03:24:05.232Z,4.00
2017-12-12T03:26:32.940Z,4.00
2017-12-12T03:29:00.628Z,4.00
2017-12-12T03:31:28.331Z,4.00
2017-12-12T03:33:56.778Z,4.00
2017-12-12T03:36:24.496Z,4.00
2017-12-12T03:38:52.171Z,4.10
2017-12-12T03:41:19.895Z,4.10
2017-12-12T03:43:48.371Z,4.20
2017-12-12T03:46:16.812Z,4.20
2017-12-12T03:48:44.568Z,4.20
2017-12-12T03:51:12.260Z,4.10
2017-12-12T03:53:39.962Z,4.10
2017-12-12T03:56:07.624Z,4.10
2017-12-12T03:58:35.339Z,4.10
2017-12-12T04:01:03.032Z,4.10
2017-12-12T04:03:31.494Z,4.10
2017-12-12T04:05:59.945Z,4.20
2017-12-12T04:08:27.594Z,4.20
2017-12-12T04:10:55.254Z,4.10
2017-12-12T04:13:22.934Z,4.10
2017-12-12T04:15:50.638Z,4.10
2017-12-12T04:18:18.318Z,4.10
2017-12-12T04:20:46.020Z,4.10
2017-12-12T04:23:13.686Z,4.10
2017-12-12T04:25:41.413Z,4.10
2017-12-12T04:28:09.095Z,4.20
2017-12-12T04:30:36.834Z,4.30
2017-12-12T04:33:04.509Z,4.40
2017-12-12T04:35:32.201Z,4.40
2017-12-12T04:38:00.670Z,4.50
2017-12-12T04:40:28.358Z,4.50
2017-12-12T04:42:56.854Z,4.60
2017-12-12T04:45:24.546Z,4.60
2017-12-12T04:47:52.195Z,4.60
2017-12-12T04:50:19.904Z,4.70
2017-12-12T04:52:47.583Z,4.70
2017-12-12T04:55:16.074Z,4.70
2017-12-12T04:57:43.736Z,4.70
2017-12-12T05:00:11.423Z,4.70
2017-12-12T05:02:39.181Z,4.60
2017-12-12T05:05:06.871Z,4.60
2017-12-12T05:07:34.698Z,4.60
2017-12-12T05:10:02.339Z,4.60
2017-12-12T05:12:30.035Z,4.60
2017-12-12T05:14:57.749Z,4.70
2017-12-12T05:17:26.225Z,4.80
2017-12-12T05:19:54.728Z,4.90
2017-12-12T05:22:22.382Z,4.90
2017-12-12T05:24:50.079Z,4.90
2017-12-12T05:27:17.816Z,4.80
2017-12-12T05:29:45.479Z,4.80
2017-12-12T05:32:13.189Z,4.80
2017-12-12T05:34:41.147Z,4.80
2017-12-12T05:37:08.954Z,4.80
2017-12-12T05:39:36.652Z,4.80
2017-12-12T05:42:04.353Z,4.80
2017-12-12T05:44:32.834Z,4.70
2017-12-12T05:47:01.268Z,4.70
2017-12-12T05:49:29.003Z,4.70
2017-12-12T05:51:56.655Z,4.70
2017-12-12T05:54:24.330Z,4.60
2017-12-12T05:56:52.031Z,4.60
2017-12-12T05:59:19.703Z,4.50
2017-12-12T06:01:47.403Z,4.40
2017-12-12T06:04:15.105Z,4.40
2017-12-12T06:06:42.810Z,4.30
2017-12-12T06:09:11.233Z,4.30
2017-12-12T06:11:38.951Z,4.30
2017-12-12T06:14:07.390Z,4.20
2017-12-12T06:16:35.326Z,4.20
2017-12-12T06:19:03.004Z,4.30
2017-12-12T06:21:30.692Z,4.30
2017-12-12T06:23:58.418Z,4.20
2017-12-12T06:26:26.118Z,4.10
2017-12-12T06:28:53.930Z,4.00
2017-12-12T06:31:21.667Z,3.90
2017-12-12T06:33:50.136Z,3.90
2017-12-12T06:36:18.567Z,3.80
2017-12-12T06:38:46.271Z,3.80
2017-12-12T06:41:14.720Z,3.70
2017-12-12T06:43:43.330Z,3.70
2017-12-12T06:46:11.033Z,3.60
2017-12-12T06:48:39.063Z,3.60
2017-12-12T06:51:07.512Z,3.40
2017-12-12T06:53:35.199Z,3.30
2017-12-12T06:56:02.891Z,3.30
2017-12-12T06:58:30.599Z,3.30
2017-12-12T07:00:58.347Z,3.20
2017-12-12T07:03:26.128Z,3.10
2017-12-12T07:05:53.966Z,3.10
2017-12-12T07:08:21.666Z,3.00
2017-12-12T07:10:49.360Z,3.00
2017-12-12T07:13:17.067Z,2.90
2017-12-12T07:15:44.737Z,2.90
2017-12-12T07:18:12.491Z,2.90
2017-12-12T07:20:40.196Z,3.00
2017-12-12T07:23:07.975Z,3.00
2017-12-12T07:25:35.730Z,2.90
2017-12-12T07:28:03.451Z,3.00
2017-12-12T07:30:31.434Z,3.00
2017-12-12T07:32:59.887Z,3.00
2017-12-12T07:35:27.612Z,3.00
2017-12-12T07:37:55.304Z,3.10
2017-12-12T07:40:23.078Z,3.10
2017-12-12T07:42:50.744Z,3.10
2017-12-12T07:45:18.404Z,3.10
2017-12-12T07:47:46.192Z,3.20
2017-12-12T07:50:14.620Z,3.20
2017-12-12T07:52:42.471Z,3.20
2017-12-12T07:55:10.153Z,3.10
2017-12-12T07:57:37.851Z,3.10
2017-12-12T08:00:06.428Z,3.10
2017-12-12T08:02:34.943Z,3.10
2017-12-12T08:05:02.614Z,3.10
2017-12-12T08:07:30.375Z,3.10
2017-12-12T08:09:58.045Z,3.10
2017-12-12T08:12:25.687Z,3.10
2017-12-12T08:14:53.392Z,3.10
2017-12-12T08:17:21.165Z,3.00
2017-12-12T08:19:49.583Z,3.00
2017-12-12T08:22:17.280Z,3.00
2017-12-12T08:24:44.915Z,3.00
2017-12-12T08:27:12.576Z,3.00
2017-12-12T08:29:40.255Z,3.00
2017-12-12T08:32:07.884Z,3.00
2017-12-12T08:34:35.643Z,3.00
2017-12-12T08:37:03.272Z,2.90
2017-12-12T08:39:31.921Z,2.90
2017-12-12T08:41:59.620Z,2.80
2017-12-12T08:44:27.386Z,2.90
2017-12-12T08:46:55.124Z,2.90
2017-12-12T08:49:22.827Z,2.90
2017-12-12T08:51:50.552Z,2.90
2017-12-12T08:54:18.195Z,2.90
2017-12-12T08:56:45.838Z,2.90
2017-12-12T08:59:13.484Z,2.90
2017-12-12T09:01:41.115Z,2.90
2017-12-12T09:04:09.573Z,2.80
2017-12-12T09:06:37.208Z,2.80
2017-12-12T09:09:04.967Z,2.80
2017-12-12T09:11:32.574Z,2.90
2017-12-12T09:14:00.981Z,2.90
2017-12-12T09:16:28.643Z,2.90
2017-12-12T09:18:56.321Z,2.90
2017-12-12T09:21:24.043Z,2.90
2017-12-12T09:23:52.507Z,3.00
2017-12-12T09:26:20.966Z,3.10
2017-12-12T09:28:48.607Z,3.00
2017-12-12T09:31:16.231Z,3.00
2017-12-12T09:33:43.878Z,2.90
2017-12-12T09:36:12.258Z,3.00
2017-12-12T09:38:40.704Z,3.00
2017-12-12T09:41:08.506Z,2.90
2017-12-12T09:43:36.203Z,3.00
2017-12-12T09:46:03.947Z,3.00
2017-12-12T09:48:31.575Z,2.90
2017-12-12T09:51:02.085Z,2.90
2017-12-12T09:53:30.579Z,2.90
2017-12-12T09:55:58.700Z,2.90
2017-12-12T09:58:27.017Z,3.00
2017-12-12T10:00:55.418Z,3.00
2017-12-12T10:03:23.107Z,3.00
2017-12-12T10:05:50.773Z,3.00
2017-12-12T10:08:18.614Z,3.00
2017-12-12T10:10:46.655Z,3.10
2017-12-12T10:13:15.075Z,3.20
2017-12-12T10:15:42.770Z,3.20
2017-12-12T10:18:10.415Z,3.20
2017-12-12T10:20:38.132Z,3.20
2017-12-12T10:23:05.792Z,3.20
2017-12-12T10:25:33.416Z,3.30
2017-12-12T10:28:01.108Z,3.30
2017-12-12T10:30:28.785Z,3.40
2017-12-12T10:32:56.497Z,3.40
2017-12-12T10:35:24.116Z,3.40
2017-12-12T10:37:52.575Z,3.30
2017-12-12T10:40:20.313Z,3.30
2017-12-12T10:42:48.864Z,3.40
2017-12-12T10:45:16.556Z,3.40
2017-12-12T10:47:44.242Z,3.40
2017-12-12T10:50:11.959Z,3.40
2017-12-12T10:52:39.607Z,3.40
2017-12-12T10:55:07.323Z,3.40
2017-12-12T10:57:35.039Z,3.40
2017-12-12T11:00:02.727Z,3.40
2017-12-12T11:02:31.115Z,3.60
2017-12-12T11:04:58.821Z,3.60
2017-12-12T11:07:26.444Z,3.50
2017-12-12T11:09:54.305Z,3.60
2017-12-12T11:12:21.936Z,3.50
2017-12-12T11:14:49.590Z,3.60
2017-12-12T11:17:17.297Z,3.60
2017-12-12T11:19:44.941Z,3.60
2017-12-12T11:22:12.623Z,3.60
2017-12-12T11:24:40.246Z,3.50
2017-12-12T11:27:08.735Z,3.50
2017-12-12T11:29:37.231Z,3.50
2017-12-12T11:32:05.747Z,3.40
2017-12-12T11:34:33.416Z,3.40
2017-12-12T11:37:01.076Z,3.40
2017-12-12T11:39:28.725Z,3.40
2017-12-12T11:41:56.343Z,3.30
2017-12-12T11:44:23.976Z,3.30
2017-12-12T11:46:51.605Z,3.20
2017-12-12T11:49:19.946Z,3.20
2017-12-12T11:51:47.590Z,3.20
2017-12-12T11:54:15.280Z,3.20
2017-12-12T11:56:42.997Z,3.20
2017-12-12T11:59:11.574Z,3.30
2017-12-12T12:01:39.325Z,3.20
2017-12-12T12:04:07.074Z,3.30
2017-12-12T12:06:34.957Z,3.30
2017-12-12T12:09:02.625Z,3.20
2017-12-12T12:11:30.362Z,3.20
2017-12-12T12:13:58.193Z,3.20
2017-12-12T12:16:25.980Z,3.20
2017-12-12T12:18:53.583Z,3.20
2017-12-12T12:21:21.375Z,3.20
2017-12-12T12:23:49.028Z,3.20
2017-12-12T12:26:16.767Z,3.20
2017-12-12T12:28:45.204Z,3.10
2017-12-12T12:31:12.907Z,3.10
2017-12-12T12:33:41.421Z,3.10
2017-12-12T12:36:09.244Z,3.10
2017-12-12T12:38:37.770Z,3.10
2017-12-12T12:41:05.492Z,3.10
2017-12-12T12:43:34.083Z,3.10
2017-12-12T12:46:02.675Z,3.10
2017-12-12T12:48:31.131Z,3.10
2017-12-12T12:50:59.719Z,3.00
2017-12-12T12:53:28.224Z,3.00
2017-12-12T12:55:56.020Z,3.00
2017-12-12T12:58:23.793Z,3.00
2017-12-12T13:00:51.463Z,3.00
2017-12-12T13:03:19.110Z,3.00
2017-12-12T13:05:46.768Z,2.90
2017-12-12T13:08:14.480Z,2.90
2017-12-12T13:10:42.875Z,2.80
2017-12-12T13:13:10.572Z,2.80
2017-12-12T13:15:38.251Z,2.70
2017-12-12T13:18:05.915Z,2.60
2017-12-12T13:20:34.395Z,2.50
2017-12-12T13:23:02.039Z,2.50
2017-12-12T13:25:29.753Z,2.40
2017-12-12T13:27:57.442Z,2.40
2017-12-12T13:30:25.178Z,2.40
2017-12-12T13:32:52.841Z,2.40
2017-12-12T13:35:20.549Z,2.30
2017-12-12T13:37:48.265Z,2.40
2017-12-12T13:40:15.969Z,2.30
2017-12-12T13:42:43.731Z,2.40
2017-12-12T13:45:11.366Z,2.40
2017-12-12T13:47:39.024Z,2.40
2017-12-12T13:50:06.694Z,2.40
2017-12-12T13:52:34.323Z,2.40
2017-12-12T13:55:01.970Z,2.40
2017-12-12T13:57:29.771Z,2.40
2017-12-12T13:59:57.411Z,2.30
2017-12-12T14:02:25.063Z,2.30
2017-12-12T14:04:52.706Z,2.40
2017-12-12T14:07:20.331Z,2.40
2017-12-12T14:09:47.978Z,2.40
2017-12-12T14:12:15.600Z,2.30
2017-12-12T14:14:43.392Z,2.20
2017-12-12T14:17:11.068Z,2.20
2017-12-12T14:19:38.764Z,2.20
2017-12-12T14:22:07.184Z,2.00
2017-12-12T14:24:34.819Z,2.00
2017-12-12T14:27:02.568Z,2.00
2017-12-12T14:29:30.953Z,2.00
2017-12-12T14:31:58.600Z,1.90
2017-12-12T14:34:27.225Z,1.90
2017-12-12T14:36:54.897Z,1.80
2017-12-12T14:39:22.624Z,1.90
2017-12-12T14:41:50.247Z,1.80
2017-12-12T14:44:18.111Z,1.80
2017-12-12T14:46:45.737Z,1.80
2017-12-12T14:49:13.455Z,1.80
2017-12-12T14:51:41.834Z,1.80
2017-12-12T14:54:10.243Z,1.80
2017-12-12T14:56:37.863Z,1.80
2017-12-12T14:59:06.269Z,1.80
2017-12-12T15:01:33.874Z,1.80
2017-12-12T15:04:01.558Z,1.80
2017-12-12T15:06:29.933Z,1.90
2017-12-12T15:08:57.578Z,1.80
2017-12-12T15:11:25.216Z,1.80
2017-12-12T15:13:52.868Z,1.80
2017-12-12T15:16:20.480Z,1.80
2017-12-12T15:18:48.897Z,1.80
2017-12-12T15:21:16.509Z,1.80
2017-12-12T15:23:44.169Z,1.80
2017-12-12T15:26:12.576Z,1.80
2017-12-12T15:28:40.239Z,1.80
2017-12-12T15:31:07.875Z,1.90
2017-12-12T15:33:35.547Z,1.90
2017-12-12T15:36:03.255Z,1.90
2017-12-12T15:38:30.919Z,1.90
2017-12-12T15:40:58.616Z,1.90
2017-12-12T15:43:27.058Z,1.90
2017-12-12T15:45:54.709Z,2.00
2017-12-12T15:48:22.413Z,2.10
2017-12-12T15:50:50.850Z,2.00
2017-12-12T15:53:19.044Z,2.00
2017-12-12T15:55:46.755Z,2.00
2017-12-12T15:58:14.401Z,2.10
2017-12-12T16:00:42.143Z,2.10
2017-12-12T16:03:10.532Z,2.10
2017-12-12T16:05:38.191Z,2.10
2017-12-12T16:08:06.559Z,2.10
2017-12-12T16:10:34.987Z,2.20
2017-12-12T16:13:02.643Z,2.20
2017-12-12T16:15:30.288Z,2.20
2017-12-12T16:17:58.594Z,2.20
2017-12-12T16:20:26.211Z,2.20
2017-12-12T16:22:53.879Z,2.20
2017-12-12T16:25:21.640Z,2.30
2017-12-12T16:27:49.322Z,2.30
2017-12-12T16:30:16.950Z,2.40
2017-12-12T16:32:44.607Z,2.30
2017-12-12T16:35:12.541Z,2.20
2017-12-12T16:37:40.191Z,2.20
2017-12-12T16:40:07.903Z,2.20
2017-12-12T16:42:35.587Z,2.20
2017-12-12T16:45:03.289Z,2.30
2017-12-12T16:47:30.945Z,2.30
2017-12-12T16:49:58.593Z,2.40
2017-12-12T16:52:27.159Z,2.30
2017-12-12T16:54:54.759Z,2.40
2017-12-12T16:57:22.437Z,2.30
2017-12-12T16:59:50.063Z,2.30
2017-12-12T17:02:18.955Z,2.30
2017-12-12T17:04:46.589Z,2.30
2017-12-12T17:07:14.255Z,2.30
2017-12-12T17:09:41.867Z,2.40
2017-12-12T17:12:09.553Z,2.30
2017-12-12T17:14:37.213Z,2.30
2017-12-12T17:17:04.830Z,2.20
2017-12-12T17:19:33.262Z,2.20
2017-12-12T17:22:00.915Z,2.20
2017-12-12T17:24:28.593Z,2.20
2017-12-12T17:26:56.235Z,2.20
2017-12-12T17:29:23.876Z,2.20
2017-12-12T17:31:51.515Z,2.20
2017-12-12T17:34:19.950Z,2.20
2017-12-12T17:36:47.603Z,2.20
2017-12-12T17:39:15.232Z,2.20
2017-12-12T17:41:44.683Z,2.20
2017-12-12T17:44:12.336Z,2.20
2017-12-12T17:46:40.056Z,2.20
2017-12-12T17:49:07.679Z,2.20
2017-12-12T17:51:35.328Z,2.30
2017-12-12T17:54:02.961Z,2.30
2017-12-12T17:56:30.626Z,2.20
2017-12-12T17:58:58.260Z,2.20
2017-12-12T18:01:25.935Z,2.10
2017-12-12T18:03:53.675Z,2.10
2017-12-12T18:06:21.370Z,2.10
2017-12-12T18:08:49.009Z,2.10
2017-12-12T18:11:16.683Z,2.10
2017-12-12T18:13:44.326Z,2.10
2017-12-12T18:16:11.983Z,2.10
2017-12-12T18:18:39.652Z,2.10
2017-12-12T18:21:07.255Z,2.10
2017-12-12T18:23:35.704Z,2.00
2017-12-12T18:26:03.330Z,2.00
2017-12-12T18:28:30.996Z,2.10
2017-12-12T18:30:58.648Z,2.10
2017-12-12T18:33:26.311Z,2.00
2017-12-12T18:35:54.036Z,2.10
2017-12-12T18:38:21.770Z,2.00
2017-12-12T18:40:49.609Z,2.00
2017-12-12T18:43:17.274Z,2.00
2017-12-12T18:45:44.967Z,2.00
2017-12-12T18:48:12.646Z,2.00
2017-12-12T18:50:40.312Z,2.00
2017-12-12T18:53:08.868Z,2.00
2017-12-12T18:55:37.335Z,2.00
2017-12-12T18:58:05.062Z,2.00
2017-12-12T19:00:32.879Z,2.00
2017-12-12T19:03:00.763Z,2.00
2017-12-12T19:05:29.935Z,2.20
2017-12-12T19:07:57.770Z,2.20
2017-12-12T19:10:25.407Z,2.20
2017-12-12T19:12:53.152Z,2.10
2017-12-12T19:15:21.543Z,2.10
2017-12-12T19:17:49.475Z,2.10
2017-12-12T19:20:17.159Z,2.10
2017-12-12T19:22:45.595Z,2.00
2017-12-12T19:25:13.319Z,2.00
2017-12-12T19:27:41.026Z,2.00
2017-12-12T19:30:08.827Z,2.00
2017-12-12T19:32:37.264Z,2.00
2017-12-12T19:35:04.987Z,2.00
2017-12-12T19:37:32.771Z,2.00
2017-12-12T19:40:00.587Z,2.00
2017-12-12T19:42:29.024Z,2.00
2017-12-12T19:44:56.776Z,2.00
2017-12-12T19:47:25.022Z,2.10
2017-12-12T19:49:52.715Z,2.00
2017-12-12T19:52:20.506Z,2.00
2017-12-12T19:54:48.248Z,2.00
2017-12-12T19:57:16.156Z,1.90
2017-12-12T19:59:43.998Z,1.90
2017-12-12T20:02:11.895Z,1.90
2017-12-12T20:04:39.843Z,1.90
2017-12-12T20:07:08.420Z,1.90
2017-12-12T20:09:36.199Z,1.90
2017-12-12T20:12:04.080Z,1.80
2017-12-12T20:14:32.023Z,1.80
2017-12-12T20:17:00.542Z,1.70
2017-12-12T20:19:28.298Z,1.70
2017-12-12T20:21:56.243Z,1.60
2017-12-12T20:24:24.794Z,1.70
2017-12-12T20:26:52.576Z,1.60
2017-12-12T20:29:21.050Z,1.70
2017-12-12T20:31:49.434Z,1.70
2017-12-12T20:34:17.881Z,1.60
2017-12-12T20:36:45.526Z,1.60
2017-12-12T20:39:13.241Z,1.70
2017-12-12T20:41:40.938Z,1.60
2017-12-12T20:44:08.703Z,1.60
2017-12-12T20:46:36.428Z,1.50
2017-12-12T20:49:04.956Z,1.50
2017-12-12T20:51:32.723Z,1.50
2017-12-12T20:54:00.505Z,1.50
2017-12-12T20:56:29.122Z,1.50
2017-12-12T20:58:56.860Z,1.50
2017-12-12T21:01:24.611Z,1.60
2017-12-12T21:03:52.515Z,1.50
2017-12-12T21:06:20.291Z,1.60
2017-12-12T21:08:48.177Z,1.70
2017-12-12T21:11:16.113Z,1.60
2017-12-12T21:13:43.919Z,1.60
2017-12-12T21:16:11.740Z,1.60
2017-12-12T21:18:39.609Z,1.60
2017-12-12T21:21:07.402Z,1.60
2017-12-12T21:23:35.482Z,1.60
2017-12-12T21:26:03.375Z,1.60
2017-12-12T21:28:31.145Z,1.60
2017-12-12T21:30:58.983Z,1.60
2017-12-12T21:33:27.423Z,1.60
2017-12-12T21:35:55.409Z,1.60
2017-12-12T21:38:23.023Z,1.60
2017-12-12T21:40:51.615Z,1.60
2017-12-12T21:43:19.427Z,1.50
2017-12-12T21:45:47.099Z,1.50
2017-12-12T21:48:14.932Z,1.50
2017-12-12T21:50:42.718Z,1.50
2017-12-12T21:53:10.591Z,1.50
2017-12-12T21:55:38.432Z,1.60
2017-12-12T21:58:06.320Z,1.60
2017-12-12T22:00:34.257Z,1.60
2017-12-12T22:03:02.167Z,1.60
2017-12-12T22:05:30.751Z,1.50
2017-12-12T22:07:58.731Z,1.50
2017-12-12T22:10:26.411Z,1.50
2017-12-12T22:12:54.247Z,1.50
2017-12-12T22:15:23.741Z,1.40
2017-12-12T22:17:51.370Z,1.40
2017-12-12T22:20:19.870Z,1.30
2017-12-12T22:22:48.812Z,1.30
2017-12-12T22:25:16.629Z,1.20
2017-12-12T22:27:45.409Z,1.10
2017-12-12T22:30:13.272Z,1.10
2017-12-12T22:32:41.271Z,1.10
2017-12-12T22:35:09.183Z,1.10
2017-12-12T22:37:37.063Z,1.10
2017-12-12T22:40:04.696Z,1.10
2017-12-12T22:42:32.359Z,1.10
2017-12-12T22:45:00.012Z,1.10
2017-12-12T22:47:27.646Z,1.00
2017-12-12T22:49:55.267Z,1.00
2017-12-12T22:52:22.930Z,1.00
2017-12-12T22:54:50.598Z,1.00
2017-12-12T22:57:18.991Z,1.00
2017-12-12T22:59:46.649Z,0.90
2017-12-12T23:02:15.096Z,0.90
2017-12-12T23:04:42.745Z,0.90
2017-12-12T23:07:10.370Z,0.80
2017-12-12T23:09:38.032Z,0.80
2017-12-12T23:12:05.710Z,0.70
2017-12-12T23:14:33.340Z,0.60
2017-12-12T23:17:01.124Z,0.60
2017-12-12T23:19:28.756Z,0.50
2017-12-12T23:21:56.441Z,0.40
2017-12-12T23:24:24.118Z,0.40
2017-12-12T23:26:51.791Z,0.30
2017-12-12T23:29:19.504Z,0.20
2017-12-12T23:31:47.216Z,0.20
2017-12-12T23:34:14.976Z,0.20
2017-12-12T23:36:42.684Z,0.10
2017-12-12T23:39:10.366Z,0.10
2017-12-12T23:41:38.005Z,0.00
2017-12-12T23:44:05.633Z,0.00
2017-12-12T23:46:33.297Z,-0.10
2017-12-12T23:49:01.696Z,-0.10
2017-12-12T23:51:30.103Z,-0.10
2017-12-12T23:53:57.747Z,-0.10
2017-12-12T23:56:25.465Z,-0.10
2017-12-12T23:58:53.095Z,0.00
